CheckWX is a tool to help pilots better visualize weather data.  It is not intended as a substitute for an official pre-flight weather briefing.

18:44:23 UTC

CYIV METAR
Island Lake Airport
Island Lake, Manitoba, Canada
Current

44 mins ago

CYIV 171800Z 27006KT 15SM FEW220 M23/M26 A3044 RMK CI2 SLP343
Observed
Feb-17 @ 18:00 UTC
Wind
  • 270° at 6 KTS
Visibility
15 SM
Flight Rules
VFR
Cloud Levels
  • Few at 22,000' AGL
Temperature
-23°C / -9°F
Dewpoint
-26°C / -15°F
Humidity
77%
Altimeter
30.44" Hg
Pressure
1034.3 hPa
Previous

2 hours ago

CYIV 171700Z 29006KT 15SM SCT220 M25/M29 A3044 RMK CI3 SLP344
Observed
Feb-17 @ 17:00 UTC
Wind
  • 290° at 6 KTS
Visibility
15 SM
Flight Rules
VFR
Cloud Levels
  • Scattered at 22,000' AGL
Temperature
-25°C / -13°F
Dewpoint
-29°C / -20°F
Humidity
69%
Altimeter
30.44" Hg
Pressure
1034.4 hPa
Previous

3 hours ago

CYIV 171600Z 27003KT 15SM SCT220 M28/M31 A3044 RMK CI4 SLP343
Observed
Feb-17 @ 16:00 UTC
Wind
  • 270° at 3 KTS
Visibility
15 SM
Flight Rules
VFR
Cloud Levels
  • Scattered at 22,000' AGL
Temperature
-28°C / -18°F
Dewpoint
-31°C / -24°F
Humidity
75%
Altimeter
30.44" Hg
Pressure
1034.3 hPa